Tropical Cyclones
[Index]
Main Index Home Page Stock Weather Photos Extreme Storms Discussion Storm News and Storm Chasing Reports Tropical Cyclones / Hurricanes / Typhoons Weather Data and Links Wild Fires / Bushfires Weather Observation Techniques Weather Picture Catalogue Tornado Pictures and Reports Stock Video Footage and DVDs for sale
Season 2007-2008 Tropical Cyclone GUBA Track Map
Season 2007-2008 Summaries (Operational Data): [AU] [SIO] [SPAC] [SH]
<<- Previous TC | 2007-2008 Season | Next TC ->>

click for intensity scale information  Lat/long Grid: Show Hide

 Date Labels: Show Hide

Operational Tropical Cyclone Data : JTWC Advisories | BoM Warnings

Name: GUBA
Number: 0802

12 Nov 2007 00:00 UTC to 19 Nov 2007 21:00 UTC

    date/time    lat    long     hPa   cat  kts
2007-11-12 00    6.5   152.1                             
2007-11-12 06    7.1   151.8                             
2007-11-12 12    7.3   150.7                             
2007-11-12 18    9.0   150.3                             
2007-11-13 00   10.5   149.8    1000         30          
2007-11-13 06   11.0   149.2     999         30          
2007-11-13 12   11.2   148.2     999         30          
2007-11-13 18   11.2   147.2     998         30          
2007-11-14 00   11.2   147.1     997         30          
2007-11-14 06   10.8   146.5     995    1    35          
2007-11-14 12   10.8   146.1     993    1    35          
2007-11-14 18   10.5   146.0     995    1    35          
2007-11-15 00   10.4   145.8     995    1    35          
2007-11-15 06   10.5   146.1     990    1    40          
2007-11-15 12   10.8   146.0     990    1    40          
2007-11-15 18   10.8   146.2     990    1    40          
2007-11-16 00   11.2   146.7     980    2    55          
2007-11-16 06   11.4   146.7     970    3    65          
2007-11-16 12   11.5   146.9     970    3    75          
2007-11-16 18   11.6   146.9     970    3    75          
2007-11-17 00   11.2   147.4     970    3    75          
2007-11-17 06   11.4   147.5     970    3    75          
2007-11-17 12   11.9   147.5     975    2    60          
2007-11-17 18   12.0   147.1     985    2    50          
2007-11-18 00   12.2   146.9     985    2    50          
2007-11-18 06   12.5   146.4     990    1    40          
2007-11-18 12   12.8   146.2     995    1    35          
2007-11-18 18   12.6   145.8     995    1    35          
2007-11-18 21   12.2   144.7     987    1    45          
2007-11-19 05   11.8   144.7     990    1    40          
2007-11-19 12   10.2   144.8     990    1    40          
2007-11-19 18    9.9   145.0     995    1    35          
2007-11-19 21    9.8   145.1     997         30          
Winds are 10-min average.

Tropical cyclone tracks developed by Michael Bath using operational warnings and advisories and Google Maps.


[Australian Severe Weather index] [Copyright Notice] [Email Contacts] [Search This Site] [Privacy Policy]
Document: tropical_cyclone_guba.htm Updated: 2 May 2017